Time;durP1;ratioP1;P1;durP2;ratioP2;P2;SDS_P1;SDS_P2;PMS_P1;PMS_P2;Temp;Humidity;BMP_temperature;BMP_pressure;BME280_temperature;BME280_humidity;BME280_pressure;Samples;Min_cycle;Max_cycle;Signal;HPM_P1;HPM_P2
2023/04/21 00:00:12;;;;;;;1.98;0.95;;;12.00;99.90;;;;;;4408083;32;20074;-70
2023/04/21 00:02:38;;;;;;;2.33;1.60;;;12.00;99.90;;;;;;4410167;32;20109;-70
2023/04/21 00:05:06;;;;;;;3.58;1.67;;;12.00;99.90;;;;;;4409530;32;20074;-70
2023/04/21 00:07:32;;;;;;;0.77;0.77;;;12.00;99.90;;;;;;4410625;32;20082;-71
2023/04/21 00:09:58;;;;;;;1.20;1.12;;;12.00;99.90;;;;;;4408918;32;20054;-72
2023/04/21 00:12:23;;;;;;;0.70;0.70;;;12.00;99.90;;;;;;4411889;32;20113;-71
2023/04/21 00:14:49;;;;;;;1.83;1.48;;;11.90;99.90;;;;;;4410556;32;20122;-70
2023/04/21 00:17:14;;;;;;;0.77;0.77;;;11.90;99.90;;;;;;4408201;32;20081;-70
2023/04/21 00:19:41;;;;;;;5.18;1.05;;;12.00;99.90;;;;;;4408354;32;20137;-71
2023/04/21 00:22:10;;;;;;;1.20;1.02;;;12.00;99.90;;;;;;4410763;32;20432;-71
2023/04/21 00:24:36;;;;;;;5.93;2.30;;;11.90;99.90;;;;;;4408718;32;20117;-70
2023/04/21 00:27:02;;;;;;;1.33;1.20;;;11.90;99.90;;;;;;4410111;32;20069;-71
2023/04/21 00:29:28;;;;;;;5.45;2.17;;;11.90;99.90;;;;;;4408022;32;20077;-72
2023/04/21 00:31:53;;;;;;;1.50;0.93;;;11.90;99.90;;;;;;4409222;32;20590;-71
2023/04/21 00:34:19;;;;;;;2.20;1.35;;;11.80;99.90;;;;;;4409588;32;20153;-73
2023/04/21 00:36:44;;;;;;;18.30;1.60;;;11.90;99.90;;;;;;4409356;32;20077;-71
2023/04/21 00:39:09;;;;;;;4.28;1.45;;;11.90;99.90;;;;;;4407655;32;20176;-70
2023/04/21 00:41:36;;;;;;;4.22;1.62;;;11.90;99.90;;;;;;4409366;32;20065;-69
2023/04/21 00:44:03;;;;;;;0.80;0.80;;;11.90;99.90;;;;;;4408269;32;20919;-72
2023/04/21 00:46:29;;;;;;;1.08;0.98;;;11.90;99.90;;;;;;4408295;32;20601;-73
2023/04/21 00:48:54;;;;;;;3.72;1.67;;;11.90;99.90;;;;;;4407216;32;20081;-73
2023/04/21 00:51:20;;;;;;;1.83;1.27;;;11.90;99.90;;;;;;4407115;32;20457;-72
2023/04/21 00:53:46;;;;;;;0.80;0.60;;;11.80;99.90;;;;;;4408038;32;20087;-72
2023/04/21 00:56:12;;;;;;;4.72;1.77;;;11.80;99.90;;;;;;4409691;32;20134;-72
2023/04/21 00:58:41;;;;;;;0.68;0.68;;;11.70;99.90;;;;;;4406355;32;20053;-72
2023/04/21 01:01:07;;;;;;;2.70;1.37;;;11.70;99.90;;;;;;4408948;32;20193;-74
2023/04/21 01:03:32;;;;;;;2.17;1.08;;;11.70;99.90;;;;;;4408108;32;20125;-72
2023/04/21 01:05:58;;;;;;;0.60;0.60;;;11.70;99.90;;;;;;4408301;32;20125;-72
2023/04/21 01:08:23;;;;;;;1.67;1.23;;;11.70;99.90;;;;;;4407006;32;20078;-72
2023/04/21 01:10:49;;;;;;;2.60;0.98;;;11.60;99.90;;;;;;4406698;32;20136;-72
2023/04/21 01:13:18;;;;;;;0.57;0.57;;;11.50;99.90;;;;;;4409294;32;20082;-72
2023/04/21 01:15:43;;;;;;;0.40;0.40;;;11.50;99.90;;;;;;4408954;32;20110;-71
2023/04/21 01:18:08;;;;;;;1.50;0.77;;;11.50;99.90;;;;;;4409953;32;20081;-71
2023/04/21 01:20:35;;;;;;;2.60;1.73;;;11.50;99.90;;;;;;4405588;32;20085;-71
2023/04/21 01:23:00;;;;;;;0.40;0.40;;;11.50;99.90;;;;;;4409030;32;20105;-71
2023/04/21 01:25:27;;;;;;;0.95;0.80;;;11.40;99.90;;;;;;4407179;32;20145;-71
2023/04/21 01:27:52;;;;;;;2.03;0.82;;;11.40;99.90;;;;;;4408007;32;20133;-72
2023/04/21 01:30:18;;;;;;;9.52;1.23;;;11.30;99.90;;;;;;4398402;32;20482;-71
2023/04/21 01:32:43;;;;;;;2.28;1.10;;;11.30;99.90;;;;;;4399320;32;20078;-71
2023/04/21 01:35:09;;;;;;;1.12;0.85;;;11.30;99.90;;;;;;4395302;32;20116;-72
2023/04/21 01:37:35;;;;;;;0.93;0.93;;;11.20;99.90;;;;;;4400382;32;20465;-72
2023/04/21 01:40:05;;;;;;;3.85;1.12;;;11.20;99.90;;;;;;4401751;32;20483;-73
2023/04/21 01:42:33;;;;;;;0.75;0.75;;;11.20;99.90;;;;;;4396073;32;20082;-71
2023/04/21 01:44:59;;;;;;;1.25;0.98;;;11.10;99.90;;;;;;4400633;32;20085;-71
2023/04/21 01:47:25;;;;;;;3.95;0.88;;;11.10;99.90;;;;;;4397621;32;20113;-72
2023/04/21 01:49:51;;;;;;;0.82;0.77;;;11.10;99.90;;;;;;4397562;32;20058;-71
2023/04/21 01:52:17;;;;;;;1.00;0.90;;;11.10;99.90;;;;;;4397773;32;20057;-71
2023/04/21 01:54:42;;;;;;;8.10;2.62;;;11.10;99.90;;;;;;4393768;32;20533;-72
2023/04/21 01:57:08;;;;;;;2.00;0.95;;;11.00;99.90;;;;;;4395725;32;20073;-72
2023/04/21 01:59:33;;;;;;;0.68;0.68;;;10.90;99.90;;;;;;4396533;32;20094;-71
2023/04/21 02:01:59;;;;;;;7.22;1.58;;;10.90;99.90;;;;;;4393736;32;20118;-73
2023/04/21 02:04:24;;;;;;;3.83;1.80;;;10.90;99.90;;;;;;4402674;32;20086;-71
2023/04/21 02:06:50;;;;;;;1.40;1.25;;;10.90;99.90;;;;;;4397658;32;20086;-71
2023/04/21 02:09:16;;;;;;;19.48;2.45;;;10.90;99.90;;;;;;4400842;32;20069;-71
2023/04/21 02:11:41;;;;;;;3.05;1.12;;;10.90;99.90;;;;;;4399836;32;20407;-72
2023/04/21 02:14:07;;;;;;;6.10;1.10;;;10.80;99.90;;;;;;4396796;32;20158;-71
2023/04/21 02:16:32;;;;;;;0.88;0.88;;;10.80;99.90;;;;;;4399892;32;20091;-72
2023/04/21 02:18:59;;;;;;;0.70;0.70;;;10.80;99.90;;;;;;4400560;32;20066;-71
2023/04/21 02:21:25;;;;;;;9.57;3.17;;;10.80;99.90;;;;;;4396189;32;20066;-71
2023/04/21 02:23:51;;;;;;;1.23;0.80;;;10.80;99.90;;;;;;4398368;32;20066;-74
2023/04/21 02:26:17;;;;;;;1.20;1.10;;;10.80;99.90;;;;;;4399301;32;20146;-72
2023/04/21 02:28:43;;;;;;;2.67;0.98;;;10.70;99.90;;;;;;4397003;32;20066;-71
2023/04/21 02:31:08;;;;;;;4.18;2.15;;;10.70;99.90;;;;;;4400458;32;20074;-71
2023/04/21 02:33:34;;;;;;;1.00;0.98;;;10.70;99.90;;;;;;4399706;32;20070;-71
2023/04/21 02:35:59;;;;;;;3.62;1.05;;;10.70;99.90;;;;;;4395995;32;20070;-72
2023/04/21 02:38:25;;;;;;;1.08;0.85;;;10.60;99.90;;;;;;4397598;32;20073;-71
2023/04/21 02:40:50;;;;;;;2.40;1.65;;;10.70;99.90;;;;;;4400151;32;20079;-71
2023/04/21 02:43:16;;;;;;;0.90;0.90;;;10.60;99.90;;;;;;4401884;32;20135;-72
2023/04/21 02:45:42;;;;;;;0.50;0.50;;;10.70;99.90;;;;;;4401393;32;20121;-72
2023/04/21 02:48:07;;;;;;;4.75;2.28;;;10.60;99.90;;;;;;4400511;32;20458;-71
2023/04/21 02:50:33;;;;;;;2.50;1.05;;;10.60;99.90;;;;;;4401585;32;20066;-73
2023/04/21 02:52:58;;;;;;;1.52;1.35;;;10.60;99.90;;;;;;4400727;32;20070;-71
2023/04/21 02:55:24;;;;;;;0.60;0.60;;;10.60;99.90;;;;;;4399799;32;20090;-71
2023/04/21 02:57:49;;;;;;;0.88;0.88;;;10.50;99.90;;;;;;4397621;32;20435;-72
2023/04/21 03:00:15;;;;;;;3.60;1.67;;;10.50;99.90;;;;;;4403051;32;20074;-74
2023/04/21 03:02:41;;;;;;;9.18;2.00;;;10.50;99.90;;;;;;4403607;32;20081;-71
2023/04/21 03:05:07;;;;;;;1.45;1.25;;;10.50;99.90;;;;;;4398307;32;20066;-71
2023/04/21 03:07:33;;;;;;;3.92;1.23;;;10.50;99.90;;;;;;4401373;32;20073;-71
2023/04/21 03:09:58;;;;;;;1.48;0.95;;;10.50;99.90;;;;;;4402971;32;20522;-74
2023/04/21 03:12:24;;;;;;;1.20;0.98;;;10.50;99.90;;;;;;4403665;32;20541;-71
2023/04/21 03:14:49;;;;;;;1.75;0.88;;;10.40;99.90;;;;;;4400972;32;20075;-71
2023/04/21 03:17:14;;;;;;;0.90;0.90;;;10.40;99.90;;;;;;4399608;32;20061;-71
2023/04/21 03:19:40;;;;;;;1.15;0.98;;;10.40;99.90;;;;;;4399165;32;20071;-72
2023/04/21 03:22:05;;;;;;;1.70;1.23;;;10.40;99.90;;;;;;4400320;32;20416;-71
2023/04/21 03:24:31;;;;;;;1.12;0.93;;;10.40;99.90;;;;;;4399603;32;20065;-73
2023/04/21 03:26:57;;;;;;;0.90;0.82;;;10.40;99.90;;;;;;4403159;32;20486;-71
2023/04/21 03:29:22;;;;;;;1.00;0.93;;;10.30;99.90;;;;;;4403325;32;20078;-71
2023/04/21 03:31:48;;;;;;;1.65;1.12;;;10.30;99.90;;;;;;4403127;32;20093;-71
2023/04/21 03:34:14;;;;;;;1.90;1.23;;;10.20;99.90;;;;;;4401571;32;20090;-72
2023/04/21 03:36:39;;;;;;;1.23;1.12;;;10.20;99.90;;;;;;4402319;32;20106;-71
2023/04/21 03:39:05;;;;;;;2.00;0.90;;;10.20;99.90;;;;;;4402245;32;20121;-71
2023/04/21 03:41:32;;;;;;;1.30;0.98;;;10.20;99.90;;;;;;4400324;32;20075;-72
2023/04/21 03:43:58;;;;;;;3.25;1.20;;;10.20;99.90;;;;;;4399695;32;20058;-72
2023/04/21 03:46:24;;;;;;;1.20;1.12;;;10.10;99.90;;;;;;4402463;32;21916;-71
2023/04/21 03:48:49;;;;;;;4.87;1.77;;;10.10;99.90;;;;;;4404618;32;20066;-72
2023/04/21 03:51:15;;;;;;;0.88;0.88;;;10.10;99.90;;;;;;4399916;32;20062;-74
2023/04/21 03:53:40;;;;;;;2.50;0.98;;;10.10;99.90;;;;;;4401692;32;20592;-70
2023/04/21 03:56:07;;;;;;;0.50;0.50;;;10.10;99.90;;;;;;4396695;32;20137;-70
2023/04/21 03:58:32;;;;;;;1.67;0.93;;;10.10;99.90;;;;;;4400496;32;20061;-71
2023/04/21 04:00:58;;;;;;;1.98;0.98;;;10.10;99.90;;;;;;4403023;32;20109;-71
2023/04/21 04:03:23;;;;;;;2.42;1.92;;;10.10;99.90;;;;;;4402611;32;20075;-70
2023/04/21 04:05:49;;;;;;;3.35;1.75;;;10.10;99.90;;;;;;4401585;32;20086;-72
2023/04/21 04:08:14;;;;;;;0.70;0.65;;;10.00;99.90;;;;;;4403152;32;20810;-71
2023/04/21 04:10:40;;;;;;;0.55;0.55;;;10.00;99.90;;;;;;4402165;32;20538;-73
2023/04/21 04:13:06;;;;;;;0.57;0.57;;;9.90;99.90;;;;;;4400008;32;20240;-71
2023/04/21 04:15:32;;;;;;;1.00;0.90;;;10.00;99.90;;;;;;4398534;32;20058;-72
2023/04/21 04:17:57;;;;;;;11.05;1.98;;;10.00;99.90;;;;;;4401910;32;20524;-72
2023/04/21 04:20:23;;;;;;;0.93;0.93;;;10.00;99.90;;;;;;4404366;32;20134;-70
2023/04/21 04:22:49;;;;;;;2.62;1.25;;;10.00;99.90;;;;;;4392958;32;20125;-73
2023/04/21 04:25:15;;;;;;;0.70;0.70;;;10.00;99.90;;;;;;4399828;32;20515;-72
2023/04/21 04:27:43;;;;;;;3.92;1.37;;;9.90;99.90;;;;;;4398924;32;20424;-72
2023/04/21 04:30:09;;;;;;;1.58;1.15;;;10.00;99.90;;;;;;4408797;32;20074;-72
2023/04/21 04:32:36;;;;;;;2.92;1.70;;;10.00;99.90;;;;;;4413952;32;20097;-73
2023/04/21 04:35:03;;;;;;;0.45;0.45;;;10.00;99.90;;;;;;4410305;32;20151;-73
2023/04/21 04:37:28;;;;;;;29.87;2.97;;;10.00;99.90;;;;;;4410704;32;20327;-72
2023/04/21 04:39:54;;;;;;;1.48;1.12;;;10.00;99.90;;;;;;4407841;32;20093;-72
2023/04/21 04:42:19;;;;;;;0.70;0.70;;;10.00;99.90;;;;;;4411810;32;20074;-72
2023/04/21 04:44:45;;;;;;;2.83;0.93;;;10.00;99.90;;;;;;4408362;32;20145;-71
2023/04/21 04:47:11;;;;;;;7.57;1.98;;;10.00;99.90;;;;;;4409933;32;20061;-72
2023/04/21 04:49:37;;;;;;;1.00;0.90;;;10.00;99.90;;;;;;4410922;32;20086;-71
2023/04/21 04:52:02;;;;;;;1.02;0.90;;;10.10;99.90;;;;;;4411660;32;20086;-72
2023/04/21 04:54:28;;;;;;;1.02;0.82;;;10.00;99.90;;;;;;4408854;32;20065;-72
2023/04/21 04:56:54;;;;;;;1.58;1.00;;;10.00;99.90;;;;;;4407391;32;20085;-71
2023/04/21 04:59:20;;;;;;;2.22;1.23;;;10.10;99.90;;;;;;4409986;32;20086;-72
2023/04/21 05:01:45;;;;;;;1.75;0.95;;;10.10;99.90;;;;;;4405970;32;20073;-72
2023/04/21 05:04:15;;;;;;;0.80;0.80;;;10.10;99.90;;;;;;4407544;32;20117;-71
2023/04/21 05:06:40;;;;;;;1.08;0.82;;;10.10;99.90;;;;;;4407531;32;20065;-71
2023/04/21 05:09:06;;;;;;;1.10;1.00;;;10.10;99.90;;;;;;4409048;32;20513;-70
2023/04/21 05:11:31;;;;;;;0.70;0.70;;;10.10;99.90;;;;;;4409354;32;20082;-69
2023/04/21 05:13:57;;;;;;;2.53;1.90;;;10.20;99.90;;;;;;4408529;32;20098;-70
2023/04/21 05:16:22;;;;;;;2.62;1.27;;;10.20;99.90;;;;;;4401834;32;20404;-71
2023/04/21 05:18:52;;;;;;;1.12;0.90;;;10.30;99.90;;;;;;4393451;32;20066;-72
2023/04/21 05:21:26;;;;;;;1.20;1.10;;;10.30;99.90;;;;;;4405642;32;20094;-71
2023/04/21 05:23:52;;;;;;;0.80;0.80;;;10.40;99.90;;;;;;4406709;32;20131;-75
2023/04/21 05:26:18;;;;;;;7.32;1.83;;;10.40;99.90;;;;;;4393006;32;21389;-71
2023/04/21 05:28:44;;;;;;;2.53;1.30;;;10.50;99.90;;;;;;4396337;32;20070;-73
2023/04/21 05:31:09;;;;;;;1.40;1.10;;;10.50;99.90;;;;;;4371168;32;20146;-77
2023/04/21 05:33:35;;;;;;;0.68;0.68;;;10.50;99.90;;;;;;4385628;32;20070;-72
2023/04/21 05:36:01;;;;;;;0.85;0.82;;;10.60;99.90;;;;;;4387178;32;20136;-71
2023/04/21 05:38:29;;;;;;;3.22;1.27;;;10.60;99.90;;;;;;4384721;32;20108;-70
2023/04/21 05:40:56;;;;;;;2.87;1.15;;;10.70;99.90;;;;;;4385879;32;20058;-73
2023/04/21 05:43:22;;;;;;;1.15;0.65;;;10.70;99.90;;;;;;4376076;32;20133;-75
2023/04/21 05:45:48;;;;;;;0.68;0.68;;;10.70;99.90;;;;;;4375356;32;21262;-75
2023/04/21 05:48:14;;;;;;;10.40;2.62;;;10.80;99.90;;;;;;4382480;32;20066;-73
2023/04/21 05:50:40;;;;;;;1.02;0.77;;;10.90;99.90;;;;;;4386524;32;20094;-74
2023/04/21 05:53:07;;;;;;;1.25;0.90;;;11.00;99.90;;;;;;4385913;32;20062;-73
2023/04/21 05:55:34;;;;;;;1.40;1.30;;;11.00;99.90;;;;;;4384244;32;20059;-72
2023/04/21 05:58:00;;;;;;;1.55;1.10;;;11.10;99.90;;;;;;4358032;32;20109;-78
2023/04/21 06:00:25;;;;;;;1.37;1.15;;;11.10;99.90;;;;;;4358689;32;20646;-73
2023/04/21 06:02:51;;;;;;;1.73;1.48;;;11.20;99.90;;;;;;4353915;32;20145;-73
2023/04/21 06:05:16;;;;;;;0.80;0.80;;;11.30;99.90;;;;;;4353802;32;20394;-74
2023/04/21 06:07:42;;;;;;;1.75;1.05;;;11.30;99.90;;;;;;4362239;32;20070;-75
2023/04/21 06:10:08;;;;;;;0.80;0.65;;;11.30;99.90;;;;;;4357831;32;20155;-71
2023/04/21 06:12:34;;;;;;;0.77;0.75;;;11.30;99.90;;;;;;4366616;32;20424;-74
2023/04/21 06:14:59;;;;;;;1.83;0.90;;;11.40;99.90;;;;;;4362905;32;20408;-72
2023/04/21 06:17:25;;;;;;;1.33;0.90;;;11.50;99.90;;;;;;4364491;32;20243;-72
2023/04/21 06:19:52;;;;;;;0.80;0.80;;;11.50;99.90;;;;;;4366579;32;20176;-76
2023/04/21 06:22:19;;;;;;;3.83;2.08;;;11.50;99.90;;;;;;4352772;32;20101;-72
2023/04/21 06:24:45;;;;;;;5.03;2.50;;;11.60;99.90;;;;;;4357513;32;20093;-74
2023/04/21 06:27:11;;;;;;;1.23;1.00;;;11.70;99.90;;;;;;4360999;32;20070;-75
2023/04/21 06:29:37;;;;;;;1.00;0.93;;;11.70;99.90;;;;;;4350280;32;20247;-75
2023/04/21 06:32:03;;;;;;;1.48;1.15;;;11.80;99.90;;;;;;4361239;32;20123;-77
2023/04/21 06:34:28;;;;;;;2.87;1.30;;;11.90;99.90;;;;;;4362070;32;20098;-75
2023/04/21 06:36:54;;;;;;;3.03;0.90;;;11.90;99.90;;;;;;4367359;32;20085;-75
2023/04/21 06:39:19;;;;;;;0.88;0.88;;;12.00;99.90;;;;;;4368155;32;20188;-74
2023/04/21 06:41:45;;;;;;;0.62;0.62;;;12.10;99.90;;;;;;4375633;32;20124;-75
2023/04/21 06:44:12;;;;;;;6.00;1.15;;;12.20;99.90;;;;;;4375033;32;21360;-73
2023/04/21 06:46:39;;;;;;;7.75;2.20;;;12.30;99.90;;;;;;4373204;32;20471;-72
2023/04/21 06:49:07;;;;;;;1.23;1.12;;;12.40;99.90;;;;;;4372727;32;21117;-73
2023/04/21 06:51:32;;;;;;;1.17;0.77;;;12.40;99.90;;;;;;4364960;32;20183;-74
2023/04/21 06:53:58;;;;;;;0.55;0.55;;;12.50;99.90;;;;;;4365247;32;20093;-75
2023/04/21 06:56:26;;;;;;;0.95;0.93;;;12.60;99.90;;;;;;4372043;32;20085;-75
2023/04/21 06:58:51;;;;;;;0.90;0.90;;;12.70;99.90;;;;;;4364983;32;20081;-75
2023/04/21 07:01:17;;;;;;;2.12;1.23;;;12.70;99.90;;;;;;4372321;32;20204;-75
2023/04/21 07:03:43;;;;;;;0.95;0.93;;;12.80;99.90;;;;;;4373170;32;20108;-73
2023/04/21 07:06:08;;;;;;;1.23;0.90;;;12.90;99.90;;;;;;4373717;32;20078;-75
2023/04/21 07:08:34;;;;;;;1.87;1.10;;;13.00;99.90;;;;;;4373371;32;20120;-74
2023/04/21 07:11:00;;;;;;;0.70;0.70;;;13.10;99.90;;;;;;4363063;32;20098;-72
2023/04/21 07:13:25;;;;;;;1.98;1.37;;;13.10;99.90;;;;;;4378095;32;20090;-73
2023/04/21 07:15:51;;;;;;;1.33;1.12;;;13.20;99.90;;;;;;4375570;32;20384;-73
2023/04/21 07:18:16;;;;;;;0.98;0.93;;;13.30;99.90;;;;;;4378854;32;21087;-74
2023/04/21 07:20:42;;;;;;;15.52;2.95;;;13.30;99.90;;;;;;4369142;32;20099;-74
2023/04/21 07:23:07;;;;;;;1.17;1.08;;;13.40;99.90;;;;;;4364208;32;20145;-72
2023/04/21 07:25:33;;;;;;;0.80;0.80;;;13.50;99.90;;;;;;4366041;32;20101;-75
2023/04/21 07:27:58;;;;;;;1.30;1.20;;;13.60;99.90;;;;;;4363130;32;20792;-76
2023/04/21 07:30:24;;;;;;;2.33;1.65;;;13.60;99.90;;;;;;4378572;32;20144;-75
2023/04/21 07:32:50;;;;;;;7.15;2.90;;;13.70;99.90;;;;;;4375013;32;20078;-78
2023/04/21 07:35:16;;;;;;;1.25;0.85;;;13.80;99.90;;;;;;4379355;32;20101;-76
2023/04/21 07:37:42;;;;;;;1.23;1.05;;;13.90;99.90;;;;;;4375906;32;20944;-76
2023/04/21 07:40:08;;;;;;;3.92;0.98;;;14.10;99.90;;;;;;4354596;32;20117;-77
2023/04/21 07:42:34;;;;;;;0.95;0.95;;;14.20;99.90;;;;;;4389877;32;20100;-73
2023/04/21 07:45:01;;;;;;;1.90;1.50;;;14.40;99.90;;;;;;4386262;32;20439;-76
2023/04/21 07:47:27;;;;;;;0.77;0.77;;;14.40;99.90;;;;;;4390987;32;20142;-75
2023/04/21 07:49:52;;;;;;;0.80;0.80;;;14.60;99.90;;;;;;4381072;32;20089;-75
2023/04/21 07:52:18;;;;;;;7.03;1.52;;;14.70;99.90;;;;;;4373021;32;20185;-76
2023/04/21 07:54:44;;;;;;;3.42;1.77;;;14.80;99.90;;;;;;4375868;32;20085;-76
2023/04/21 07:57:10;;;;;;;1.98;0.93;;;14.90;99.90;;;;;;4375578;32;20097;-75
2023/04/21 07:59:35;;;;;;;1.10;0.88;;;14.90;99.90;;;;;;4367976;32;20557;-76
2023/04/21 08:02:02;;;;;;;1.40;1.30;;;15.00;99.90;;;;;;4363665;32;20098;-77
2023/04/21 08:04:27;;;;;;;2.33;1.15;;;15.10;99.90;;;;;;4376053;32;21524;-74
2023/04/21 08:06:52;;;;;;;1.30;1.00;;;15.20;99.90;;;;;;4380434;32;20082;-75
2023/04/21 08:09:18;;;;;;;2.15;1.30;;;15.30;99.90;;;;;;4369929;32;20086;-75
2023/04/21 08:11:43;;;;;;;0.70;0.70;;;15.40;99.90;;;;;;4375675;32;20090;-75
2023/04/21 08:14:10;;;;;;;0.75;0.75;;;15.50;99.90;;;;;;4371867;32;20676;-73
2023/04/21 08:16:37;;;;;;;3.17;1.55;;;15.50;99.90;;;;;;4379646;32;20471;-73
2023/04/21 08:19:03;;;;;;;12.77;3.05;;;15.60;99.90;;;;;;4380296;32;20344;-74
2023/04/21 08:21:28;;;;;;;3.80;1.42;;;15.70;99.90;;;;;;4367292;32;20077;-76
2023/04/21 08:23:54;;;;;;;1.73;1.35;;;15.70;99.90;;;;;;4373679;32;20089;-77
2023/04/21 08:26:22;;;;;;;1.00;0.85;;;15.90;99.90;;;;;;4382924;32;21019;-77
2023/04/21 08:28:48;;;;;;;3.67;1.50;;;16.00;99.90;;;;;;4379700;32;20307;-75
2023/04/21 08:31:14;;;;;;;1.12;1.02;;;16.10;99.90;;;;;;4357879;32;20185;-77
2023/04/21 08:33:40;;;;;;;3.30;1.80;;;16.20;99.90;;;;;;4374179;32;21094;-77
2023/04/21 08:36:06;;;;;;;0.62;0.62;;;16.30;99.90;;;;;;4367907;32;20093;-75
2023/04/21 08:38:32;;;;;;;0.90;0.90;;;16.50;99.90;;;;;;4362817;32;20090;-75
2023/04/21 08:40:59;;;;;;;0.62;0.62;;;16.60;99.90;;;;;;4365819;32;20448;-75
2023/04/21 08:43:25;;;;;;;0.65;0.65;;;16.70;99.90;;;;;;4357297;32;20090;-75
2023/04/21 08:45:53;;;;;;;1.58;1.48;;;16.70;99.90;;;;;;4372392;32;20073;-72
2023/04/21 08:48:21;;;;;;;1.02;0.85;;;16.80;99.90;;;;;;4376293;32;20106;-75
2023/04/21 08:50:50;;;;;;;1.33;1.00;;;16.90;99.90;;;;;;4381756;32;20114;-75
2023/04/21 08:53:16;;;;;;;0.77;0.77;;;17.00;99.90;;;;;;4377289;32;20299;-77
2023/04/21 08:55:42;;;;;;;7.07;2.35;;;17.10;99.90;;;;;;4370673;32;20110;-77
2023/04/21 08:58:08;;;;;;;1.48;1.25;;;17.20;99.90;;;;;;4377949;32;20092;-75
2023/04/21 09:00:35;;;;;;;0.70;0.70;;;17.20;99.90;;;;;;4383174;32;20589;-77
2023/04/21 09:03:02;;;;;;;3.42;0.90;;;17.40;99.90;;;;;;4385014;32;20132;-75
2023/04/21 09:05:30;;;;;;;1.65;1.20;;;17.60;99.90;;;;;;4370738;32;20101;-73
2023/04/21 09:08:08;;;;;;;0.95;0.90;;;17.70;99.90;;;;;;4370706;32;20082;-76
2023/04/21 09:10:41;;;;;;;1.08;0.98;;;17.80;99.90;;;;;;4371684;32;20276;-74
2023/04/21 09:13:07;;;;;;;2.42;1.80;;;17.80;99.90;;;;;;4370946;32;20089;-74
2023/04/21 09:15:45;;;;;;;3.95;1.15;;;17.90;99.90;;;;;;4372929;32;20158;-73
2023/04/21 09:18:17;;;;;;;1.25;0.75;;;18.00;99.90;;;;;;4364299;32;20445;-74
2023/04/21 09:20:44;;;;;;;6.22;0.95;;;18.20;99.90;;;;;;4372865;32;20102;-76
2023/04/21 09:23:12;;;;;;;6.10;1.98;;;18.40;99.90;;;;;;4377715;32;20082;-77
2023/04/21 09:25:39;;;;;;;4.53;1.85;;;18.60;99.90;;;;;;4379134;32;20080;-73
2023/04/21 09:28:07;;;;;;;1.73;0.88;;;18.80;99.20;;;;;;4379044;32;20187;-75
2023/04/21 09:30:37;;;;;;;1.25;0.82;;;19.00;99.20;;;;;;4387253;32;20090;-75
2023/04/21 09:33:03;;;;;;;0.73;0.62;;;19.00;99.10;;;;;;4365870;32;20090;-76
2023/04/21 09:35:32;;;;;;;1.20;1.10;;;19.30;99.90;;;;;;4361859;32;20541;-74
2023/04/21 09:38:00;;;;;;;1.85;1.33;;;19.40;97.90;;;;;;4372954;32;20096;-75
2023/04/21 09:40:28;;;;;;;0.77;0.77;;;19.70;98.40;;;;;;4369156;32;20113;-74
2023/04/21 09:42:53;;;;;;;1.33;0.82;;;19.80;97.70;;;;;;4370421;32;20110;-73
2023/04/21 09:45:19;;;;;;;1.25;0.98;;;19.80;97.00;;;;;;4362272;32;20085;-74
2023/04/21 09:47:50;;;;;;;0.65;0.55;;;19.90;98.00;;;;;;4371386;32;20837;-74
2023/04/21 09:50:19;;;;;;;3.80;1.62;;;20.00;98.20;;;;;;4371477;32;20703;-76
2023/04/21 09:52:49;;;;;;;1.48;1.10;;;20.10;95.60;;;;;;4370805;32;20085;-72
2023/04/21 09:55:15;;;;;;;1.10;0.82;;;19.90;96.10;;;;;;4377293;32;20066;-73
2023/04/21 09:57:43;;;;;;;1.60;0.90;;;20.10;96.00;;;;;;4374046;32;20073;-73
2023/04/21 10:00:11;;;;;;;1.30;0.95;;;20.30;96.40;;;;;;4364448;32;20687;-73
2023/04/21 10:02:44;;;;;;;0.77;0.75;;;20.50;95.10;;;;;;4371611;32;20201;-72
2023/04/21 10:05:10;;;;;;;2.95;1.50;;;20.50;93.30;;;;;;4374397;32;20078;-72
2023/04/21 10:07:36;;;;;;;3.87;0.57;;;20.30;93.70;;;;;;4376504;32;20081;-74
2023/04/21 10:10:02;;;;;;;1.25;0.50;;;20.40;94.70;;;;;;4367074;32;21230;-76
2023/04/21 10:12:28;;;;;;;0.70;0.70;;;20.70;95.10;;;;;;4376938;32;20161;-74
2023/04/21 10:14:55;;;;;;;0.70;0.70;;;20.90;94.30;;;;;;4366913;32;20107;-75
2023/04/21 10:17:23;;;;;;;1.37;1.05;;;21.00;94.00;;;;;;4360139;32;20597;-76
2023/04/21 10:19:57;;;;;;;0.60;0.60;;;21.00;92.10;;;;;;4373049;32;20519;-73
2023/04/21 10:22:28;;;;;;;0.62;0.62;;;21.00;92.80;;;;;;4384992;32;20071;-74
2023/04/21 10:24:57;;;;;;;0.85;0.65;;;21.50;92.40;;;;;;4385526;32;20358;-73
2023/04/21 10:27:42;;;;;;;0.82;0.80;;;21.60;93.50;;;;;;4388815;32;20135;-74
2023/04/21 10:30:26;;;;;;;0.60;0.60;;;21.60;91.20;;;;;;4378068;32;20077;-71
2023/04/21 10:33:07;;;;;;;0.90;0.90;;;21.50;91.40;;;;;;4387761;32;20113;-73
2023/04/21 10:35:58;;;;;;;1.27;1.15;;;21.80;91.10;;;;;;4383944;32;20145;-72
2023/04/21 10:38:53;;;;;;;1.23;1.12;;;21.80;89.60;;;;;;4376945;32;20443;-73
2023/04/21 10:41:35;;;;;;;0.55;0.55;;;21.80;90.20;;;;;;4382237;32;20093;-74
2023/04/21 10:44:10;;;;;;;0.70;0.70;;;21.90;90.10;;;;;;4387621;32;20105;-75
2023/04/21 10:46:39;;;;;;;0.75;0.45;;;22.00;88.60;;;;;;4371890;32;20090;-71
2023/04/21 10:49:09;;;;;;;0.70;0.70;;;22.20;89.50;;;;;;4390771;32;20089;-71
2023/04/21 10:51:58;;;;;;;0.50;0.50;;;22.30;88.50;;;;;;4383820;32;20077;-73
2023/04/21 10:54:26;;;;;;;2.03;1.42;;;22.60;90.30;;;;;;4371704;32;20587;-75
2023/04/21 10:56:54;;;;;;;0.43;0.43;;;22.90;88.60;;;;;;4379052;32;20105;-72
2023/04/21 10:59:20;;;;;;;0.60;0.60;;;23.00;85.40;;;;;;4381037;32;20592;-74
2023/04/21 11:01:46;;;;;;;0.55;0.55;;;23.10;86.90;;;;;;4384267;32;20568;-72
2023/04/21 11:04:14;;;;;;;3.90;1.65;;;23.30;85.00;;;;;;4376933;32;20268;-71
2023/04/21 11:06:40;;;;;;;0.95;0.60;;;23.40;85.20;;;;;;4376932;32;20513;-73
2023/04/21 11:09:05;;;;;;;0.65;0.60;;;23.50;84.70;;;;;;4377754;32;20196;-73
2023/04/21 11:11:31;;;;;;;11.70;1.15;;;23.30;82.30;;;;;;4385784;32;20073;-73
2023/04/21 11:14:00;;;;;;;1.30;0.80;;;23.00;83.80;;;;;;4381861;32;20105;-71
2023/04/21 11:16:25;;;;;;;0.43;0.43;;;23.30;83.40;;;;;;4387719;32;21015;-74
2023/04/21 11:18:51;;;;;;;0.60;0.60;;;23.30;82.20;;;;;;4387216;32;20109;-72
2023/04/21 11:21:20;;;;;;;0.52;0.52;;;23.40;81.20;;;;;;4373648;32;21622;-73
2023/04/21 11:23:49;;;;;;;0.65;0.62;;;24.10;80.90;;;;;;4386147;32;20081;-70
2023/04/21 11:26:16;;;;;;;0.47;0.45;;;24.10;78.80;;;;;;4379625;32;20891;-74
2023/04/21 11:28:41;;;;;;;0.32;0.32;;;24.00;80.20;;;;;;4377402;32;20105;-72
2023/04/21 11:31:07;;;;;;;0.85;0.60;;;24.10;79.10;;;;;;4383946;32;20479;-74
2023/04/21 11:33:37;;;;;;;0.17;0.17;;;24.00;78.60;;;;;;4384287;32;20085;-75
2023/04/21 11:36:04;;;;;;;0.70;0.43;;;24.20;78.20;;;;;;4385945;32;20629;-74
2023/04/21 11:38:45;;;;;;;2.08;0.98;;;24.50;79.20;;;;;;4382968;32;20098;-73
2023/04/21 11:41:11;;;;;;;0.65;0.40;;;24.40;75.80;;;;;;4382983;32;20223;-73
2023/04/21 11:43:37;;;;;;;0.50;0.50;;;23.80;75.30;;;;;;4373919;32;133436;-72
2023/04/21 11:46:23;;;;;;;0.95;0.60;;;23.90;77.70;;;;;;4372626;32;20180;-74
2023/04/21 11:49:06;;;;;;;3.58;0.95;;;24.10;76.00;;;;;;4370174;32;21705;-75
2023/04/21 11:51:34;;;;;;;4.82;1.55;;;24.40;75.40;;;;;;4377822;32;20597;-75
2023/04/21 11:54:00;;;;;;;2.78;0.60;;;24.70;76.30;;;;;;4365896;32;20105;-72
2023/04/21 11:56:25;;;;;;;0.40;0.40;;;25.10;73.30;;;;;;4358106;32;20069;-73
2023/04/21 11:58:51;;;;;;;0.40;0.40;;;25.20;74.70;;;;;;4375636;32;20074;-73
2023/04/21 12:01:18;;;;;;;0.70;0.50;;;25.40;72.50;;;;;;4380491;32;20073;-73
2023/04/21 12:03:53;;;;;;;0.40;0.40;;;25.50;72.90;;;;;;4370681;32;26554;-73
2023/04/21 12:06:20;;;;;;;2.17;0.88;;;25.10;72.10;;;;;;4372165;32;20623;-72
2023/04/21 12:08:45;;;;;;;0.60;0.60;;;24.50;73.10;;;;;;4376381;32;21703;-75
2023/04/21 12:11:14;;;;;;;0.40;0.40;;;24.80;76.30;;;;;;4395675;32;20089;-74
2023/04/21 12:13:40;;;;;;;1.17;0.80;;;25.10;74.30;;;;;;4391824;32;20078;-73
2023/04/21 12:16:05;;;;;;;1.17;0.73;;;25.00;74.40;;;;;;4389359;32;20086;-73
2023/04/21 12:18:32;;;;;;;0.35;0.35;;;25.00;73.70;;;;;;4389773;32;20136;-74
2023/04/21 12:21:01;;;;;;;0.32;0.32;;;25.40;71.80;;;;;;4385335;32;21044;-73
2023/04/21 12:23:26;;;;;;;0.40;0.40;;;25.80;72.70;;;;;;4381332;32;20179;-74
2023/04/21 12:25:52;;;;;;;1.50;0.80;;;26.30;72.00;;;;;;4380026;32;20076;-74
2023/04/21 12:28:17;;;;;;;0.40;0.40;;;26.30;71.00;;;;;;4386805;32;20194;-74
2023/04/21 12:30:43;;;;;;;0.70;0.57;;;26.00;69.60;;;;;;4378542;32;20158;-73
2023/04/21 12:33:09;;;;;;;0.43;0.43;;;26.00;71.10;;;;;;4387214;32;20102;-73
2023/04/21 12:35:35;;;;;;;0.57;0.52;;;26.60;70.30;;;;;;4390379;32;20096;-73
2023/04/21 12:38:00;;;;;;;0.40;0.40;;;26.80;68.30;;;;;;4396550;32;20105;-73
2023/04/21 12:40:26;;;;;;;0.77;0.50;;;26.80;69.40;;;;;;4395992;32;20062;-73
2023/04/21 12:42:51;;;;;;;0.40;0.40;;;27.00;67.50;;;;;;4398821;32;20124;-73